Kezdőlap
METAR-TAF:

METAR-TAF

Repülőterek :

Springfield-Beckley Municipal Airport

Springfield, Ohio, Amerikai Egyesült Államok

földrajzi szélesség: 39-50N, földrajzi hosszúság: 083-50W, magasság: 321 m

Jelenlegi meteorológiai megfigyelések

A jelentés 48 perccel ezelõtt készült, 01:56 UTC
Kelet-délkeleti szél 3 kt
Hőmérséklet 21°C
Páratartalom 88%
Légköri nyomás 1017 hPa
Látótávolság: 16.1 km
Derült ég

METAR: KSGH 230156Z AUTO 12003KT 10SM CLR 21/19 A3002 RMK AO2 SLP163 T02060194

Idő: 22:44 (02:44 UTC)


TAF: hiányzik

Meteorológiai megfigyelések és előrejelzések több, mint 4000 repülőtéren (METAR és TAF jelentéseket).

A térképen piros és sárga pontok jelzik az elérhető meteorológiai állomásokat.

Mozgassa az egeret a pont fölött, hogy megjelenjen az állomás neve.

Azután kattintson az időjárási megfigyelések és előrejelzések megtekintéséhez.

A térkép megváltoztatása: kattintson a fekete keresztel jelölt zöld gombra ráközelítéshez, a vonallal jelölt zöld gombra távolításhoz, vagy a zöld nyilakra a szomszédos térképek eléréséhez.


METAR-TAF: